サン=ドニ の空港の天気 - METARとTAF

ローラン・ギャロス空港 ( FMEE / RUN ) - レユニオン サン=ドニ
飛行場実況気象(Metar)
観測時間02/06 00:00 RET (02/05 20:00 UTC)
風向・風速南東 7m/s
視程10km以上
天気現象
少しの雲 雲底高度 1190m
全天の4割程度の雲 雲底高度 1770m
気温26℃
湿度79%
気圧1012hPa
METARFMEE 052000Z AUTO 13013KT 9999 FEW039/// SCT058/// ///TCU 26/22 Q1012 TEMPO 3000 SHRA BECMG SCT025
過去の天気等 Google飛行場航空写真 Wunderground天気予報

過去48時間のMETAR

飛行場予報(TAF)
発表時間: -
5日22時 RET ~ 6日7時 RET に 確率 40% で一時的に
視程3000m
天気現象しゅう雨
6日8時 RET ~ 6日10時 RET に徐々に
風向・風速東 9m/s
6日14時 RET ~ 6日16時 RET に徐々に
風向・風速東南東 7m/s
7日0時 RET ~ 7日4時 RET に 確率 30% で一時的に
視程4000m
天気現象しゅう雨
全天の4割程度の塔状積雲 雲底高度 610m
TAF AMD
FMEE 051823Z 0518/0624 14012KT 9999 SCT025
PROB40 TEMPO 0518/0603 3000 SHRA
BECMG 0604/0606 08018KT
BECMG 0610/0612 12014KT
PROB30 TEMPO 0620/0624 4000 SHRA SCT020TCU